Time;durP1;ratioP1;P1;durP2;ratioP2;P2;SDS_P1;SDS_P2;PMS_P1;PMS_P2;Temp;Humidity;BMP_temperature;BMP_pressure;BME280_temperature;BME280_humidity;BME280_pressure;Samples;Min_cycle;Max_cycle;Signal;HPM_P1;HPM_P2
2023/12/28 00:02:17;;;;;;;10.38;2.50;;;;;;;11.44;100.00;100987.41;5274464;28;20504;-74
2023/12/28 00:04:47;;;;;;;5.10;2.67;;;;;;;11.37;100.00;100987.25;5271794;28;20028;-74
2023/12/28 00:07:18;;;;;;;5.28;2.83;;;;;;;11.38;100.00;100988.94;5273308;28;20031;-74
2023/12/28 00:09:48;;;;;;;6.18;2.97;;;;;;;11.39;100.00;100979.03;5261941;28;20024;-74
2023/12/28 00:12:19;;;;;;;8.00;2.50;;;;;;;11.25;100.00;100982.41;5278062;28;20135;-73
2023/12/28 00:14:50;;;;;;;6.95;2.80;;;;;;;11.39;100.00;100989.75;5275300;28;20118;-73
2023/12/28 00:17:20;;;;;;;6.25;2.72;;;;;;;11.26;100.00;100989.44;5278370;28;20027;-74
2023/12/28 00:19:51;;;;;;;7.53;2.70;;;;;;;11.38;100.00;101005.06;5275744;28;20038;-74
2023/12/28 00:22:21;;;;;;;8.98;2.88;;;;;;;11.30;100.00;100998.84;5268118;28;20380;-74
2023/12/28 00:24:52;;;;;;;6.50;2.55;;;;;;;11.31;100.00;101008.59;5271117;28;20028;-74
2023/12/28 00:27:22;;;;;;;4.95;2.72;;;;;;;11.36;100.00;101011.59;5267285;28;20032;-74
2023/12/28 00:29:53;;;;;;;5.18;2.78;;;;;;;11.31;100.00;101014.78;5269521;28;20024;-74
2023/12/28 00:32:23;;;;;;;7.03;3.20;;;;;;;11.39;100.00;101016.63;5274919;28;20019;-74
2023/12/28 00:34:54;;;;;;;5.38;2.38;;;;;;;11.45;100.00;101025.88;5270821;28;20035;-74
2023/12/28 00:37:24;;;;;;;5.20;2.33;;;;;;;11.47;100.00;101024.69;5273934;28;20031;-74
2023/12/28 00:39:55;;;;;;;5.90;2.97;;;;;;;11.48;100.00;101026.38;5268033;28;20027;-74
2023/12/28 00:42:25;;;;;;;6.45;2.60;;;;;;;11.38;100.00;101025.69;5278723;28;20165;-74
2023/12/28 00:44:56;;;;;;;6.10;2.75;;;;;;;11.43;100.00;101028.72;5271313;28;20399;-73
2023/12/28 00:47:26;;;;;;;5.05;2.70;;;;;;;11.45;100.00;101031.25;5275797;28;20031;-74
2023/12/28 00:49:56;;;;;;;7.63;2.92;;;;;;;11.44;100.00;101025.03;5264079;28;20024;-73
2023/12/28 00:52:27;;;;;;;7.07;2.70;;;;;;;11.55;100.00;101030.09;5277967;28;20038;-72
2023/12/28 00:54:57;;;;;;;7.40;2.40;;;;;;;11.47;100.00;101027.38;5268083;28;20040;-73
2023/12/28 00:57:28;;;;;;;6.18;2.45;;;;;;;11.49;100.00;101030.72;5266814;28;20456;-73
2023/12/28 00:59:59;;;;;;;5.97;2.50;;;;;;;11.44;100.00;101027.72;5273570;28;20112;-73
2023/12/28 01:02:29;;;;;;;8.10;2.75;;;;;;;11.38;100.00;101042.66;5271801;28;20397;-73
2023/12/28 01:05:00;;;;;;;8.23;3.05;;;;;;;11.46;100.00;101039.16;5265130;28;20433;-73
2023/12/28 01:07:30;;;;;;;9.65;2.58;;;;;;;11.46;100.00;101039.16;5273674;28;20031;-73
2023/12/28 01:10:00;;;;;;;7.70;2.75;;;;;;;11.43;100.00;101031.41;5273737;28;20834;-73
2023/12/28 01:12:31;;;;;;;7.75;3.33;;;;;;;11.45;100.00;101028.59;5275181;28;20098;-73
2023/12/28 01:15:01;;;;;;;6.72;2.85;;;;;;;11.50;100.00;101035.13;5270512;28;20035;-73
2023/12/28 01:17:32;;;;;;;4.90;2.20;;;;;;;11.45;100.00;101039.31;5275315;28;20043;-73
2023/12/28 01:20:03;;;;;;;6.53;2.63;;;;;;;11.46;100.00;101041.84;5267202;28;20046;-73
2023/12/28 01:22:34;;;;;;;6.43;2.42;;;;;;;11.47;100.00;101054.25;5277110;28;21378;-73
2023/12/28 01:25:05;;;;;;;5.97;2.88;;;;;;;11.40;100.00;101045.19;5276512;28;20061;-73
2023/12/28 01:27:35;;;;;;;5.82;2.33;;;;;;;11.39;100.00;101044.31;5266048;28;20019;-73
2023/12/28 01:30:07;;;;;;;5.07;2.50;;;;;;;11.43;100.00;101039.47;5267843;28;20024;-73
2023/12/28 01:32:37;;;;;;;5.00;2.72;;;;;;;11.44;100.00;101034.94;5266000;28;20044;-73
2023/12/28 01:35:08;;;;;;;6.30;2.47;;;;;;;11.46;100.00;101039.16;5266168;28;20534;-73
2023/12/28 01:37:38;;;;;;;7.60;2.80;;;;;;;11.48;100.00;101042.50;5268222;28;20028;-73
2023/12/28 01:40:09;;;;;;;4.82;2.50;;;;;;;11.54;100.00;101041.81;5270656;28;20039;-73
2023/12/28 01:42:40;;;;;;;10.20;2.50;;;;;;;11.48;100.00;101049.72;5272126;28;20025;-73
2023/12/28 01:45:10;;;;;;;5.22;2.47;;;;;;;11.37;100.00;101054.41;5276706;28;20250;-73
2023/12/28 01:47:41;;;;;;;4.60;2.67;;;;;;;11.44;100.00;101072.53;5274506;28;20026;-73
2023/12/28 01:50:12;;;;;;;6.55;2.30;;;;;;;11.48;100.00;101061.31;5274441;28;20461;-73
2023/12/28 01:52:43;;;;;;;4.28;2.92;;;;;;;11.50;100.00;101055.78;5267557;28;20069;-73
2023/12/28 01:55:14;;;;;;;8.85;2.30;;;;;;;11.54;100.00;101074.06;5273996;28;20519;-73
2023/12/28 01:57:45;;;;;;;7.68;2.67;;;;;;;11.48;100.00;101074.72;5262228;28;20020;-73
2023/12/28 02:00:16;;;;;;;4.45;2.25;;;;;;;11.39;100.00;101068.50;5271540;28;20080;-73
2023/12/28 02:02:48;;;;;;;7.55;2.70;;;;;;;11.37;100.00;101057.09;5267324;28;20028;-74
2023/12/28 02:05:19;;;;;;;6.93;2.88;;;;;;;11.43;100.00;101066.34;5273047;28;20042;-73
2023/12/28 02:07:49;;;;;;;5.75;2.80;;;;;;;11.47;100.00;101058.78;5268909;28;20560;-73
2023/12/28 02:10:20;;;;;;;4.40;2.10;;;;;;;11.48;100.00;101061.31;5274587;28;20028;-73
2023/12/28 02:12:53;;;;;;;2.17;1.77;;;;;;;11.55;100.00;101070.38;5268947;28;20028;-73
2023/12/28 02:15:23;;;;;;;6.13;2.40;;;;;;;11.48;100.00;101061.31;5269522;28;20031;-73
2023/12/28 02:18:02;;;;;;;4.72;2.10;;;;;;;11.48;100.00;101066.69;5271669;28;20472;-73
2023/12/28 02:20:34;;;;;;;4.53;2.10;;;;;;;11.51;100.00;101077.09;5270990;28;20016;-73
2023/12/28 02:23:06;;;;;;;6.00;2.40;;;;;;;11.44;100.00;101051.88;5275951;28;20021;-73
2023/12/28 02:25:37;;;;;;;4.60;2.28;;;;;;;11.54;100.00;101068.69;5273278;28;20097;-73
2023/12/28 02:28:08;;;;;;;9.18;2.35;;;;;;;11.54;100.00;101074.06;5273216;28;20537;-73
2023/12/28 02:30:38;;;;;;;5.25;2.20;;;;;;;11.61;100.00;101071.56;5271963;28;20122;-73
2023/12/28 02:33:24;;;;;;;4.55;1.90;;;;;;;11.62;100.00;101074.06;5274246;28;20139;-73
2023/12/28 02:35:57;;;;;;;5.35;2.00;;;;;;;11.70;100.00;101083.13;5277976;28;20035;-73
2023/12/28 02:38:30;;;;;;;5.82;2.33;;;;;;;11.65;100.00;101076.44;5277977;28;20024;-73
2023/12/28 02:41:03;;;;;;;6.53;2.10;;;;;;;11.65;100.00;101063.00;5278217;28;20054;-73
2023/12/28 02:43:34;;;;;;;8.85;1.95;;;;;;;11.69;100.00;101058.09;5279170;28;20023;-73
2023/12/28 02:46:05;;;;;;;6.80;2.33;;;;;;;11.80;100.00;101073.09;5272208;28;20024;-73
2023/12/28 02:48:36;;;;;;;7.00;1.90;;;;;;;11.76;100.00;101072.56;5275470;28;20081;-73
2023/12/28 02:51:06;;;;;;;3.95;1.92;;;;;;;11.89;100.00;101070.22;5279101;28;20028;-73
2023/12/28 02:53:37;;;;;;;4.68;2.20;;;;;;;11.77;100.00;101081.47;5275097;28;20024;-73
2023/12/28 02:56:07;;;;;;;6.07;2.10;;;;;;;11.88;100.00;101070.41;5273616;28;20034;-73
2023/12/28 02:58:38;;;;;;;8.35;2.13;;;;;;;11.90;100.00;101071.09;5265150;28;20020;-73
2023/12/28 03:01:08;;;;;;;8.57;2.28;;;;;;;11.88;100.00;101075.78;5273735;28;20046;-73
2023/12/28 03:03:39;;;;;;;8.18;2.05;;;;;;;11.96;100.00;101062.34;5276007;28;20020;-73
2023/12/28 03:06:09;;;;;;;9.50;2.10;;;;;;;11.78;100.00;101067.03;5275429;28;20023;-73
2023/12/28 03:08:40;;;;;;;6.13;2.20;;;;;;;11.87;100.00;101055.28;5271219;28;20482;-73
2023/12/28 03:11:10;;;;;;;5.10;2.35;;;;;;;11.93;100.00;101060.81;5275454;28;20035;-73
2023/12/28 03:13:42;;;;;;;5.97;1.92;;;;;;;11.89;100.00;101072.91;5270763;28;20073;-73
2023/12/28 03:16:14;;;;;;;9.45;2.67;;;;;;;11.86;100.00;101064.38;5275738;28;20036;-73
2023/12/28 03:18:44;;;;;;;9.52;2.10;;;;;;;11.92;100.00;101058.31;5270480;28;20077;-73
2023/12/28 03:21:15;;;;;;;7.47;2.10;;;;;;;11.95;100.00;101059.81;5274678;28;20031;-73
2023/12/28 03:23:46;;;;;;;6.05;2.25;;;;;;;11.87;100.00;101068.72;5274402;28;20020;-73
2023/12/28 03:26:16;;;;;;;8.73;2.10;;;;;;;11.88;100.00;101043.53;5275839;28;20041;-73
2023/12/28 03:28:47;;;;;;;7.53;2.33;;;;;;;11.81;100.00;101037.13;5271254;28;20398;-73
2023/12/28 03:31:17;;;;;;;7.53;2.03;;;;;;;11.85;100.00;101035.81;5271239;28;20027;-73
2023/12/28 03:33:48;;;;;;;13.23;2.40;;;;;;;11.91;100.00;101049.41;5273898;28;20132;-73
2023/12/28 03:36:19;;;;;;;10.75;2.13;;;;;;;11.74;100.00;101034.25;5274634;28;20012;-73
2023/12/28 03:38:50;;;;;;;8.68;2.15;;;;;;;11.81;100.00;101045.19;5273169;28;20028;-73
2023/12/28 03:41:20;;;;;;;8.57;2.30;;;;;;;11.66;100.00;101040.50;5275255;28;20022;-73
2023/12/28 03:43:51;;;;;;;11.60;2.38;;;;;;;11.68;100.00;101046.53;5272382;28;20477;-73
2023/12/28 03:46:22;;;;;;;7.28;2.20;;;;;;;11.78;100.00;101045.50;5271551;28;20388;-73
2023/12/28 03:48:53;;;;;;;11.02;2.40;;;;;;;11.73;100.00;101039.81;5273742;28;20078;-73
2023/12/28 03:51:24;;;;;;;14.95;2.63;;;;;;;11.73;100.00;101037.97;5274759;28;20055;-73
2023/12/28 03:53:55;;;;;;;6.53;2.53;;;;;;;11.71;100.00;101036.47;5272361;28;20067;-73
2023/12/28 03:56:27;;;;;;;8.32;2.03;;;;;;;11.75;100.00;101057.47;5266491;28;20020;-73
2023/12/28 03:58:57;;;;;;;10.27;1.90;;;;;;;11.81;100.00;101053.25;5273417;28;20035;-73
2023/12/28 04:01:28;;;;;;;3.65;1.80;;;;;;;11.88;100.00;101048.91;5269855;28;20073;-73
2023/12/28 04:03:58;;;;;;;10.15;2.42;;;;;;;11.88;100.00;101043.53;5274220;28;20030;-74
2023/12/28 04:06:29;;;;;;;14.65;2.38;;;;;;;11.87;100.00;101057.97;5272148;28;20019;-73
2023/12/28 04:08:59;;;;;;;8.82;2.17;;;;;;;11.95;100.00;101057.97;5268139;28;20377;-73
2023/12/28 04:11:30;;;;;;;7.25;2.08;;;;;;;11.96;100.00;101056.97;5270408;28;20047;-74
2023/12/28 04:14:01;;;;;;;7.95;2.58;;;;;;;11.97;100.00;101058.63;5272264;28;20034;-74
2023/12/28 04:16:31;;;;;;;13.32;2.90;;;;;;;12.00;100.00;101052.94;5268929;28;20054;-74
2023/12/28 04:19:02;;;;;;;11.38;1.80;;;;;;;12.02;100.00;101056.28;5268478;28;20391;-74
2023/12/28 04:21:32;;;;;;;8.10;2.45;;;;;;;12.02;100.00;101064.34;5269566;28;20019;-73
2023/12/28 04:24:03;;;;;;;9.52;2.10;;;;;;;11.98;100.00;101056.78;5271443;28;20024;-74
2023/12/28 04:26:33;;;;;;;9.20;1.83;;;;;;;11.93;100.00;101062.66;5273662;28;20020;-74
2023/12/28 04:29:04;;;;;;;9.02;2.03;;;;;;;11.94;100.00;101061.66;5271843;28;20077;-73
2023/12/28 04:31:40;;;;;;;9.38;2.13;;;;;;;11.92;100.00;101061.84;5270971;28;20030;-74
2023/12/28 04:34:10;;;;;;;11.30;2.38;;;;;;;11.83;100.00;101062.84;5271424;28;20111;-74
2023/12/28 04:36:42;;;;;;;13.45;2.90;;;;;;;11.85;100.00;101068.91;5267392;28;20110;-74
2023/12/28 04:39:13;;;;;;;13.20;2.38;;;;;;;11.83;100.00;101067.38;5271714;28;20027;-75
2023/12/28 04:41:43;;;;;;;13.13;2.38;;;;;;;11.77;100.00;101074.25;5268764;28;20031;-74
2023/12/28 04:44:14;;;;;;;9.85;2.13;;;;;;;11.89;100.00;101089.03;5273393;27;20028;-74
2023/12/28 04:46:45;;;;;;;10.68;2.42;;;;;;;12.03;100.00;101081.31;5266945;28;20027;-74
2023/12/28 04:49:15;;;;;;;13.82;2.67;;;;;;;12.01;100.00;101084.19;5270675;28;20032;-74
2023/12/28 04:51:46;;;;;;;31.88;4.88;;;;;;;12.00;100.00;101074.44;5263180;28;20042;-74
2023/12/28 04:54:16;;;;;;;13.95;2.17;;;;;;;11.98;100.00;101079.13;5267326;28;20081;-73
2023/12/28 04:56:47;;;;;;;5.97;1.77;;;;;;;12.01;100.00;101096.78;5262153;28;20012;-74
2023/12/28 04:59:17;;;;;;;12.02;2.65;;;;;;;12.05;100.00;101090.91;5272369;28;20084;-74
2023/12/28 05:01:48;;;;;;;12.07;2.38;;;;;;;12.05;100.00;101106.16;5268416;28;20028;-74
2023/12/28 05:04:18;;;;;;;14.55;3.22;;;;;;;12.06;100.00;101089.06;5270161;28;20080;-74
2023/12/28 05:06:49;;;;;;;8.65;2.40;;;;;;;12.02;100.00;101085.84;5269679;28;20594;-74
2023/12/28 05:09:19;;;;;;;11.80;2.28;;;;;;;12.04;100.00;101080.28;5270664;28;20065;-75
2023/12/28 05:11:50;;;;;;;14.50;2.33;;;;;;;11.92;100.00;101085.19;5266372;28;20385;-74
2023/12/28 05:14:20;;;;;;;10.98;2.80;;;;;;;11.97;100.00;101096.28;5269139;28;20024;-74
2023/12/28 05:16:51;;;;;;;22.98;3.20;;;;;;;11.92;100.00;101094.09;5267175;28;20063;-73
2023/12/28 05:19:21;;;;;;;15.30;2.15;;;;;;;11.88;100.00;101097.28;5270286;28;20139;-74
2023/12/28 05:21:52;;;;;;;22.83;3.10;;;;;;;12.00;100.00;101104.03;5270538;28;20024;-74
2023/12/28 05:24:22;;;;;;;10.70;2.75;;;;;;;11.97;100.00;101095.44;5275011;28;20164;-74
2023/12/28 05:26:53;;;;;;;8.45;2.03;;;;;;;11.98;100.00;101097.13;5267800;28;20354;-74
2023/12/28 05:29:23;;;;;;;18.67;2.92;;;;;;;11.93;100.00;101108.38;5268054;28;20034;-74
2023/12/28 05:31:53;;;;;;;13.07;2.47;;;;;;;11.88;100.00;101099.97;5266097;28;20041;-74
2023/12/28 05:34:24;;;;;;;14.27;2.53;;;;;;;11.85;100.00;101116.47;5272148;28;20050;-74
2023/12/28 05:36:54;;;;;;;15.43;3.15;;;;;;;11.92;100.00;101099.47;5271334;28;20038;-74
2023/12/28 05:39:25;;;;;;;15.48;2.95;;;;;;;11.84;100.00;101104.00;5270258;28;20023;-74
2023/12/28 05:41:55;;;;;;;11.57;2.38;;;;;;;11.80;100.00;101099.97;5271193;28;20034;-74
2023/12/28 05:44:26;;;;;;;11.77;2.45;;;;;;;11.78;100.00;101101.97;5269701;28;20481;-74
2023/12/28 05:46:57;;;;;;;13.95;2.20;;;;;;;11.82;100.00;101098.81;5272106;28;20024;-77
2023/12/28 05:49:28;;;;;;;17.88;3.47;;;;;;;11.80;100.00;101111.56;5269843;28;20031;-74
2023/12/28 05:51:59;;;;;;;19.08;5.85;;;;;;;11.80;100.00;101103.50;5268765;28;20051;-74
2023/12/28 05:54:29;;;;;;;20.27;2.53;;;;;;;11.86;100.00;101110.06;5269299;28;20015;-76
2023/12/28 05:56:59;;;;;;;13.60;2.90;;;;;;;11.87;100.00;101112.59;5268071;28;20370;-74
2023/12/28 05:59:30;;;;;;;15.38;3.22;;;;;;;11.86;100.00;101110.91;5271868;28;20531;-74
2023/12/28 06:02:00;;;;;;;11.23;2.40;;;;;;;11.77;100.00;101094.91;5270141;28;20042;-75
2023/12/28 06:04:33;;;;;;;14.90;2.58;;;;;;;11.79;100.00;101109.84;5272720;28;20027;-75
2023/12/28 06:07:04;;;;;;;19.40;3.22;;;;;;;11.78;100.00;101105.50;5263841;28;20023;-75
2023/12/28 06:09:36;;;;;;;13.15;3.22;;;;;;;11.62;100.00;101122.44;5270070;28;20036;-75
2023/12/28 06:12:07;;;;;;;20.63;2.80;;;;;;;11.61;100.00;101126.16;5272841;28;20042;-76
2023/12/28 06:14:37;;;;;;;25.00;3.25;;;;;;;11.67;100.00;101117.41;5269479;28;20021;-75
2023/12/28 06:17:08;;;;;;;17.08;2.78;;;;;;;11.55;100.00;101112.53;5267814;28;20081;-75
2023/12/28 06:19:38;;;;;;;22.52;4.10;;;;;;;11.55;100.00;101107.16;5267391;27;20066;-75
2023/12/28 06:22:09;;;;;;;17.23;2.40;;;;;;;11.48;100.00;101117.72;5272832;28;20038;-75
2023/12/28 06:24:40;;;;;;;21.33;2.50;;;;;;;11.36;100.00;101111.84;5268658;28;20055;-75
2023/12/28 06:27:10;;;;;;;16.10;2.67;;;;;;;11.41;100.00;101125.59;5271161;28;20024;-75
2023/12/28 06:29:41;;;;;;;18.38;2.88;;;;;;;11.36;100.00;101127.94;5269821;28;20020;-75
2023/12/28 06:32:11;;;;;;;20.10;2.88;;;;;;;11.34;100.00;101135.31;5271353;28;20396;-75
2023/12/28 06:34:42;;;;;;;11.40;2.28;;;;;;;11.34;100.00;101124.56;5251969;28;20043;-76
2023/12/28 06:37:12;;;;;;;21.08;3.10;;;;;;;11.37;100.00;101115.34;5269631;28;20129;-74
2023/12/28 06:39:43;;;;;;;19.48;2.63;;;;;;;11.32;100.00;101125.75;5268285;28;20038;-75
2023/12/28 06:42:14;;;;;;;16.17;2.53;;;;;;;11.33;100.00;101122.06;5271704;28;20073;-75
2023/12/28 06:44:45;;;;;;;10.80;2.13;;;;;;;11.31;100.00;101132.97;5266603;28;20028;-75
2023/12/28 06:47:15;;;;;;;17.02;2.63;;;;;;;11.23;100.00;101140.16;5270759;28;20030;-75
2023/12/28 06:49:46;;;;;;;15.00;2.55;;;;;;;11.27;100.00;101153.09;5266052;28;20389;-75
2023/12/28 06:52:16;;;;;;;18.90;2.72;;;;;;;11.30;100.00;101142.03;5272033;28;20032;-75
2023/12/28 06:54:50;;;;;;;12.30;3.40;;;;;;;11.35;100.00;101149.63;5269838;28;20107;-74
2023/12/28 06:57:20;;;;;;;17.10;3.47;;;;;;;11.20;100.00;101138.66;5268674;28;20039;-74
2023/12/28 06:59:51;;;;;;;26.65;3.75;;;;;;;11.27;100.00;101141.53;5268599;28;20032;-75
2023/12/28 07:02:21;;;;;;;17.02;2.40;;;;;;;11.18;100.00;101150.56;5272379;28;20403;-74
2023/12/28 07:04:52;;;;;;;17.70;3.17;;;;;;;11.17;100.00;101140.81;5268043;28;20031;-75
2023/12/28 07:07:22;;;;;;;18.77;2.75;;;;;;;11.18;100.00;101142.50;5269950;28;20024;-75
2023/12/28 07:09:53;;;;;;;11.07;2.05;;;;;;;11.10;100.00;101140.63;5258494;28;20040;-75
2023/12/28 07:12:23;;;;;;;18.40;2.83;;;;;;;11.16;100.00;101139.97;5270684;28;20109;-74
2023/12/28 07:14:54;;;;;;;19.65;2.30;;;;;;;11.13;100.00;101140.28;5267798;28;20043;-74
2023/12/28 07:17:25;;;;;;;25.30;3.17;;;;;;;11.10;100.00;101146.00;5271799;28;20419;-75
2023/12/28 07:19:55;;;;;;;17.70;2.50;;;;;;;11.01;100.00;101147.81;5269398;28;20044;-75
2023/12/28 07:22:26;;;;;;;12.32;2.60;;;;;;;11.10;100.00;101157.59;5274241;28;20011;-74
2023/12/28 07:24:56;;;;;;;17.30;2.97;;;;;;;11.14;100.00;101161.63;5272729;28;20032;-75
2023/12/28 07:27:27;;;;;;;24.00;3.08;;;;;;;11.02;100.00;101159.38;5273002;28;20015;-75
2023/12/28 07:29:57;;;;;;;14.65;2.80;;;;;;;11.17;100.00;101159.63;5271184;28;20153;-75
2023/12/28 07:32:29;;;;;;;21.58;3.97;;;;;;;11.17;100.00;101167.66;5270563;28;20012;-75
2023/12/28 07:35:00;;;;;;;15.50;3.03;;;;;;;11.08;100.00;101174.84;5271190;28;20043;-74
2023/12/28 07:37:30;;;;;;;14.52;2.40;;;;;;;10.98;100.00;101158.84;5273182;28;20020;-75
2023/12/28 07:40:03;;;;;;;17.67;3.20;;;;;;;11.07;100.00;101168.63;5270745;28;20032;-74
2023/12/28 07:42:34;;;;;;;12.88;3.20;;;;;;;11.04;100.00;101174.31;5272618;28;20153;-74
2023/12/28 07:45:05;;;;;;;16.58;4.70;;;;;;;11.08;100.00;101173.00;5267279;28;20115;-75
2023/12/28 07:47:35;;;;;;;22.02;2.75;;;;;;;11.07;100.00;101176.69;5272096;28;20043;-74
2023/12/28 07:50:06;;;;;;;25.85;5.00;;;;;;;11.03;100.00;101183.38;5272377;28;20032;-74
2023/12/28 07:52:37;;;;;;;15.55;4.53;;;;;;;11.12;100.00;101182.41;5270443;28;20016;-75
2023/12/28 07:55:08;;;;;;;17.20;2.70;;;;;;;11.11;100.00;101191.47;5273104;28;20032;-75
2023/12/28 07:57:40;;;;;;;18.80;2.67;;;;;;;11.05;100.00;101192.13;5269387;28;20046;-75
2023/12/28 08:00:11;;;;;;;18.63;2.97;;;;;;;11.02;100.00;101192.44;5271772;28;20548;-75
2023/12/28 08:02:41;;;;;;;23.33;3.75;;;;;;;11.14;100.00;101198.34;5271321;28;20035;-74
2023/12/28 08:05:12;;;;;;;19.52;2.63;;;;;;;11.03;100.00;101190.59;5270656;28;20488;-75
2023/12/28 08:07:42;;;;;;;28.60;6.68;;;;;;;11.14;100.00;101196.53;5270074;28;20081;-75
2023/12/28 08:10:13;;;;;;;48.42;17.70;;;;;;;11.16;100.00;101193.69;5272182;28;20030;-75
2023/12/28 08:12:43;;;;;;;24.48;3.85;;;;;;;11.13;100.00;101205.56;5270243;28;20020;-75
2023/12/28 08:15:14;;;;;;;10.55;2.53;;;;;;;11.13;100.00;101204.75;5271873;28;20076;-75
2023/12/28 08:17:44;;;;;;;18.67;2.83;;;;;;;11.19;100.00;101214.00;5269948;28;21395;-75
2023/12/28 08:20:16;;;;;;;22.55;2.80;;;;;;;11.30;100.00;101214.56;5270109;28;21170;-74
2023/12/28 08:22:47;;;;;;;21.55;3.70;;;;;;;11.45;100.00;101220.16;5267190;28;20046;-74
2023/12/28 08:25:18;;;;;;;19.67;2.72;;;;;;;11.45;100.00;101187.91;5271682;28;20027;-75
2023/12/28 08:27:49;;;;;;;30.13;2.75;;;;;;;11.65;100.00;101205.44;5268406;28;20024;-75
2023/12/28 08:30:19;;;;;;;15.95;4.15;;;;;;;11.64;100.00;101201.03;5272197;28;20069;-75
2023/12/28 08:32:50;;;;;;;14.18;2.45;;;;;;;11.71;100.00;101200.41;5267524;28;20062;-75
2023/12/28 08:35:20;;;;;;;14.63;2.83;;;;;;;11.75;100.00;101194.53;5272292;28;20023;-73
2023/12/28 08:37:51;;;;;;;19.30;3.50;;;;;;;11.95;100.00;101184.34;5269246;28;20085;-73
2023/12/28 08:40:21;;;;;;;21.88;2.45;;;;;;;12.11;100.00;101183.50;5271156;28;20031;-73
2023/12/28 08:42:52;;;;;;;14.48;2.70;;;;;;;12.07;100.00;101195.59;5269096;28;20109;-73
2023/12/28 08:45:22;;;;;;;23.38;3.30;;;;;;;12.14;100.00;101189.38;5266957;28;20029;-73
2023/12/28 08:47:53;;;;;;;23.98;2.65;;;;;;;12.25;100.00;101173.91;5267293;28;20485;-73
2023/12/28 08:50:23;;;;;;;18.85;2.92;;;;;;;12.39;100.00;101189.38;5266118;28;20387;-73
2023/12/28 08:52:54;;;;;;;23.38;3.05;;;;;;;12.23;100.00;101195.59;5266077;28;20034;-73
2023/12/28 08:55:24;;;;;;;16.70;2.50;;;;;;;11.92;100.00;101188.19;5269247;28;20032;-73
2023/12/28 08:57:55;;;;;;;15.25;2.55;;;;;;;11.91;100.00;101189.22;5265138;28;20024;-74
2023/12/28 09:00:25;;;;;;;22.38;2.80;;;;;;;11.84;100.00;101208.84;5266093;28;20157;-73
2023/12/28 09:02:56;;;;;;;28.20;3.42;;;;;;;11.78;100.00;101204.94;5269995;28;20499;-73
2023/12/28 09:05:26;;;;;;;22.40;4.30;;;;;;;11.86;100.00;101206.84;5268874;28;20461;-73
2023/12/28 09:07:57;;;;;;;24.55;3.63;;;;;;;11.79;100.00;101212.00;5265959;28;20063;-73
2023/12/28 09:10:27;;;;;;;20.10;3.65;;;;;;;11.72;100.00;101207.47;5267631;28;20051;-73
2023/12/28 09:12:58;;;;;;;16.67;3.05;;;;;;;11.65;100.00;101226.09;5265334;28;20023;-73
2023/12/28 09:15:28;;;;;;;21.60;3.03;;;;;;;11.62;100.00;101231.78;5269137;28;20031;-74
2023/12/28 09:17:59;;;;;;;17.95;3.45;;;;;;;11.74;100.00;101221.56;5262466;28;20020;-73
2023/12/28 09:20:29;;;;;;;16.67;2.65;;;;;;;11.64;100.00;101225.22;5266149;28;20019;-73
2023/12/28 09:23:00;;;;;;;15.15;2.53;;;;;;;11.74;100.00;101233.16;5267965;28;20036;-73
2023/12/28 09:25:32;;;;;;;14.35;2.90;;;;;;;11.84;100.00;101233.03;5265471;28;20046;-73
2023/12/28 09:28:04;;;;;;;14.00;2.90;;;;;;;11.88;100.00;101237.09;5256780;28;20028;-73
2023/12/28 09:30:34;;;;;;;24.58;3.53;;;;;;;11.90;100.00;101246.69;5268328;28;20034;-73
2023/12/28 09:33:05;;;;;;;24.60;3.95;;;;;;;11.91;100.00;101248.34;5261524;28;20020;-74
2023/12/28 09:35:36;;;;;;;23.35;2.63;;;;;;;11.87;100.00;101247.00;5264385;28;20023;-73
2023/12/28 09:38:06;;;;;;;20.70;2.85;;;;;;;11.85;100.00;101256.25;5266817;28;20319;-73
2023/12/28 09:40:37;;;;;;;17.30;3.00;;;;;;;11.85;100.00;101253.56;5262162;28;20031;-74
2023/12/28 09:43:21;;;;;;;18.90;2.65;;;;;;;11.95;100.00;101253.38;5262676;28;20020;-74
2023/12/28 09:45:52;;;;;;;23.38;3.55;;;;;;;12.00;100.00;101257.28;5253330;28;20073;-73
2023/12/28 09:48:23;;;;;;;19.48;3.67;;;;;;;11.97;100.00;101254.91;5265901;28;20024;-73
2023/12/28 09:50:55;;;;;;;16.13;3.28;;;;;;;12.09;100.00;101266.19;5259875;28;20374;-74
2023/12/28 09:53:26;;;;;;;24.00;4.10;;;;;;;12.08;100.00;101259.97;5258965;28;20024;-74
2023/12/28 09:55:58;;;;;;;23.63;4.07;;;;;;;12.06;100.00;101262.00;5260943;28;20160;-73
2023/12/28 09:58:31;;;;;;;19.90;3.97;;;;;;;11.99;100.00;101269.03;5263875;28;20020;-74
2023/12/28 10:01:04;;;;;;;18.60;3.60;;;;;;;11.98;100.00;101269.19;5266439;28;20027;-74
2023/12/28 10:03:34;;;;;;;21.80;3.88;;;;;;;12.12;100.00;101265.88;5267270;28;21440;-73
2023/12/28 10:06:05;;;;;;;23.80;4.18;;;;;;;12.13;100.00;101257.63;5266051;28;20081;-73
2023/12/28 10:08:35;;;;;;;19.10;3.15;;;;;;;12.06;100.00;101263.84;5266267;28;20016;-73
2023/12/28 10:11:07;;;;;;;18.15;3.35;;;;;;;12.13;100.00;101263.00;5266012;28;20508;-74
2023/12/28 10:13:38;;;;;;;20.63;2.92;;;;;;;12.21;100.00;101269.41;5266234;28;20032;-74
2023/12/28 10:16:10;;;;;;;30.77;2.67;;;;;;;12.14;100.00;101263.84;5265012;28;20024;-74
2023/12/28 10:18:42;;;;;;;21.98;3.22;;;;;;;12.12;100.00;101264.00;5265941;28;20045;-74
2023/12/28 10:21:13;;;;;;;21.15;4.05;;;;;;;12.30;100.00;101269.25;5267363;28;20051;-73
2023/12/28 10:23:43;;;;;;;23.38;3.58;;;;;;;12.20;100.00;101265.88;5263123;28;20028;-74
2023/12/28 10:26:14;;;;;;;26.10;3.30;;;;;;;12.23;100.00;101278.16;5263812;28;20026;-73
2023/12/28 10:28:44;;;;;;;24.15;3.15;;;;;;;12.21;100.00;101264.88;5267798;28;20024;-74
2023/12/28 10:31:15;;;;;;;16.27;2.75;;;;;;;12.21;100.00;101289.09;5269336;28;20022;-73
2023/12/28 10:33:45;;;;;;;21.48;3.10;;;;;;;12.27;100.00;101276.81;5262440;28;20538;-74
2023/12/28 10:36:17;;;;;;;15.20;3.33;;;;;;;12.37;100.00;101262.19;5265599;28;20028;-73
2023/12/28 10:38:50;;;;;;;20.27;3.17;;;;;;;12.39;100.00;101264.69;5262792;28;20496;-74
2023/12/28 10:41:22;;;;;;;23.33;3.42;;;;;;;12.31;100.00;101288.94;5265730;28;20038;-74
2023/12/28 10:44:14;;;;;;;22.55;3.53;;;;;;;12.31;100.00;101270.09;5262141;28;20032;-74
2023/12/28 10:46:51;;;;;;;33.67;3.58;;;;;;;12.32;100.00;101282.53;5262925;28;20031;-74
2023/12/28 10:49:24;;;;;;;22.73;3.72;;;;;;;12.26;100.00;101283.22;5265509;28;20488;-74
2023/12/28 10:51:55;;;;;;;20.65;3.45;;;;;;;12.36;100.00;101276.66;5266477;28;20046;-74
2023/12/28 10:54:44;;;;;;;21.05;2.97;;;;;;;12.38;100.00;101263.84;5269953;28;20020;-74
2023/12/28 10:57:27;;;;;;;14.73;2.40;;;;;;;12.49;100.00;101257.28;5271384;28;20124;-73
2023/12/28 11:00:11;;;;;;;25.10;2.92;;;;;;;12.34;100.00;101259.81;5268914;28;20090;-73
2023/12/28 11:02:45;;;;;;;23.20;3.58;;;;;;;12.31;100.00;101253.97;5272844;28;20032;-74
2023/12/28 11:05:17;;;;;;;28.48;4.03;;;;;;;12.39;100.00;101267.38;5269841;28;20034;-73
2023/12/28 11:07:53;;;;;;;23.90;3.75;;;;;;;12.40;100.00;101264.56;5271787;28;20138;-74
2023/12/28 11:10:25;;;;;;;25.25;3.85;;;;;;;12.46;100.00;101254.13;5271272;28;20016;-74
2023/12/28 11:12:57;;;;;;;25.10;3.33;;;;;;;12.57;100.00;101251.91;5267992;28;20586;-74
2023/12/28 11:15:29;;;;;;;26.73;3.60;;;;;;;12.60;100.00;101237.28;5269425;28;20026;-74
2023/12/28 11:17:59;;;;;;;23.85;2.90;;;;;;;12.66;100.00;101242.84;5267033;28;20035;-74
2023/12/28 11:20:30;;;;;;;18.50;3.38;;;;;;;12.69;100.00;101237.09;5251424;28;20028;-74
2023/12/28 11:23:02;;;;;;;22.27;3.97;;;;;;;12.50;100.00;101229.41;5267801;28;20031;-74
2023/12/28 11:25:33;;;;;;;55.00;21.55;;;;;;;12.56;100.00;101233.25;5271341;28;20027;-74
2023/12/28 11:28:23;;;;;;;13.48;3.45;;;;;;;12.38;100.00;101226.19;5270173;28;20024;-74
2023/12/28 11:30:54;;;;;;;24.55;3.25;;;;;;;12.31;100.00;101224.34;5265398;28;20031;-74